Belorechensk, Russia
Current Conditions -  °F | °C
As of 1:00 AM on Sunday 26 Oct 2014 (Local Time) from URKK Reporting Station
Clear Clear  
Wind Chill: 15°   Ceiling: Unl
Heat Index: 28°   Visibility: 6mi
Dew Point: 19°   Wind: 22mph
Humidity: 69%   Direction: 70°ENE
Pressure: 30.39"   Gusts: 34mph
Location:  44.77°N, 39.87°E
Report Text: URKK 252200Z 07010G15MPS CAVOK M02/M07 Q1029 NOSIG RMK QFE769SC065
Loading
Personal Weather Stations






























Interactive Weather Map
Tropical Storm Tracking
New forecast layout! Learn more

10-Day Weather Forecast

Advertisements
Track Severe Weather on mobile